sensor_id;sensor_type;location;lat;lon;timestamp;P1;durP1;ratioP1;P2;durP2;ratioP2
21198;SDS011;10757;51.038;3.712;2022-12-26T00:01:54;16.15;;;11.50;;
21198;SDS011;10757;51.038;3.712;2022-12-26T00:04:21;15.65;;;11.05;;
21198;SDS011;10757;51.038;3.712;2022-12-26T00:06:47;14.25;;;10.02;;
21198;SDS011;10757;51.038;3.712;2022-12-26T00:09:12;14.30;;;10.32;;
21198;SDS011;10757;51.038;3.712;2022-12-26T00:11:38;19.13;;;11.50;;
21198;SDS011;10757;51.038;3.712;2022-12-26T00:14:05;19.00;;;11.25;;
21198;SDS011;10757;51.038;3.712;2022-12-26T00:16:33;15.40;;;9.73;;
21198;SDS011;10757;51.038;3.712;2022-12-26T00:18:59;18.00;;;9.75;;
21198;SDS011;10757;51.038;3.712;2022-12-26T00:21:25;17.58;;;9.50;;
21198;SDS011;10757;51.038;3.712;2022-12-26T00:23:51;14.43;;;10.23;;
21198;SDS011;10757;51.038;3.712;2022-12-26T00:26:19;13.82;;;10.00;;
21198;SDS011;10757;51.038;3.712;2022-12-26T00:28:47;14.02;;;9.57;;
21198;SDS011;10757;51.038;3.712;2022-12-26T00:31:17;14.27;;;9.10;;
21198;SDS011;10757;51.038;3.712;2022-12-26T00:33:45;14.98;;;10.95;;
21198;SDS011;10757;51.038;3.712;2022-12-26T00:36:15;14.63;;;9.60;;
21198;SDS011;10757;51.038;3.712;2022-12-26T00:38:43;13.88;;;10.48;;
21198;SDS011;10757;51.038;3.712;2022-12-26T00:41:10;13.90;;;9.95;;
21198;SDS011;10757;51.038;3.712;2022-12-26T00:43:38;13.73;;;9.10;;
21198;SDS011;10757;51.038;3.712;2022-12-26T00:46:03;15.13;;;9.65;;
21198;SDS011;10757;51.038;3.712;2022-12-26T00:48:30;13.18;;;9.43;;
21198;SDS011;10757;51.038;3.712;2022-12-26T00:50:56;13.52;;;9.38;;
21198;SDS011;10757;51.038;3.712;2022-12-26T00:53:22;14.93;;;9.52;;
21198;SDS011;10757;51.038;3.712;2022-12-26T00:55:48;13.57;;;8.73;;
21198;SDS011;10757;51.038;3.712;2022-12-26T00:58:15;14.27;;;8.85;;
21198;SDS011;10757;51.038;3.712;2022-12-26T01:00:41;15.35;;;9.55;;
21198;SDS011;10757;51.038;3.712;2022-12-26T01:03:07;13.25;;;9.70;;
21198;SDS011;10757;51.038;3.712;2022-12-26T01:05:33;14.77;;;9.80;;
21198;SDS011;10757;51.038;3.712;2022-12-26T01:07:58;12.40;;;9.45;;
21198;SDS011;10757;51.038;3.712;2022-12-26T01:10:24;14.13;;;9.43;;
21198;SDS011;10757;51.038;3.712;2022-12-26T01:12:51;12.43;;;8.20;;
21198;SDS011;10757;51.038;3.712;2022-12-26T01:15:17;13.93;;;9.27;;
21198;SDS011;10757;51.038;3.712;2022-12-26T01:17:43;13.35;;;8.38;;
21198;SDS011;10757;51.038;3.712;2022-12-26T01:20:09;13.88;;;8.73;;
21198;SDS011;10757;51.038;3.712;2022-12-26T01:22:35;11.80;;;8.43;;
21198;SDS011;10757;51.038;3.712;2022-12-26T01:25:01;10.95;;;8.25;;
21198;SDS011;10757;51.038;3.712;2022-12-26T01:27:27;12.07;;;9.07;;
21198;SDS011;10757;51.038;3.712;2022-12-26T01:29:53;14.73;;;9.20;;
21198;SDS011;10757;51.038;3.712;2022-12-26T01:32:19;13.20;;;8.60;;
21198;SDS011;10757;51.038;3.712;2022-12-26T01:34:44;13.20;;;8.93;;
21198;SDS011;10757;51.038;3.712;2022-12-26T01:37:11;12.63;;;8.90;;
21198;SDS011;10757;51.038;3.712;2022-12-26T01:39:38;12.30;;;8.70;;
21198;SDS011;10757;51.038;3.712;2022-12-26T01:42:11;13.23;;;9.82;;
21198;SDS011;10757;51.038;3.712;2022-12-26T01:47:19;14.27;;;9.15;;
21198;SDS011;10757;51.038;3.712;2022-12-26T01:49:48;14.32;;;10.00;;
21198;SDS011;10757;51.038;3.712;2022-12-26T01:52:18;12.20;;;8.95;;
21198;SDS011;10757;51.038;3.712;2022-12-26T01:54:52;13.13;;;8.00;;
21198;SDS011;10757;51.038;3.712;2022-12-26T01:57:23;11.95;;;8.77;;
21198;SDS011;10757;51.038;3.712;2022-12-26T01:59:57;13.52;;;8.88;;
21198;SDS011;10757;51.038;3.712;2022-12-26T02:02:27;12.35;;;8.48;;
21198;SDS011;10757;51.038;3.712;2022-12-26T02:04:54;14.23;;;8.88;;
21198;SDS011;10757;51.038;3.712;2022-12-26T02:07:41;14.35;;;8.40;;
21198;SDS011;10757;51.038;3.712;2022-12-26T02:10:13;13.10;;;8.07;;
21198;SDS011;10757;51.038;3.712;2022-12-26T02:12:44;12.50;;;7.95;;
21198;SDS011;10757;51.038;3.712;2022-12-26T02:15:11;11.23;;;7.82;;
21198;SDS011;10757;51.038;3.712;2022-12-26T02:17:41;11.65;;;8.32;;
21198;SDS011;10757;51.038;3.712;2022-12-26T02:20:21;13.15;;;7.32;;
21198;SDS011;10757;51.038;3.712;2022-12-26T02:28:33;12.30;;;7.78;;
21198;SDS011;10757;51.038;3.712;2022-12-26T02:31:35;13.20;;;6.97;;
21198;SDS011;10757;51.038;3.712;2022-12-26T02:34:46;10.18;;;6.90;;
21198;SDS011;10757;51.038;3.712;2022-12-26T02:38:12;9.65;;;6.68;;
21198;SDS011;10757;51.038;3.712;2022-12-26T02:43:02;9.95;;;6.55;;
21198;SDS011;10757;51.038;3.712;2022-12-26T02:46:16;13.35;;;6.38;;
21198;SDS011;10757;51.038;3.712;2022-12-26T02:49:19;8.80;;;6.28;;
21198;SDS011;10757;51.038;3.712;2022-12-26T02:52:15;10.48;;;6.88;;
21198;SDS011;10757;51.038;3.712;2022-12-26T02:55:19;8.70;;;5.93;;
21198;SDS011;10757;51.038;3.712;2022-12-26T02:58:14;10.90;;;6.82;;
21198;SDS011;10757;51.038;3.712;2022-12-26T03:01:44;9.90;;;5.78;;
21198;SDS011;10757;51.038;3.712;2022-12-26T03:04:32;10.15;;;6.18;;
21198;SDS011;10757;51.038;3.712;2022-12-26T03:07:21;10.48;;;6.60;;
21198;SDS011;10757;51.038;3.712;2022-12-26T03:10:30;12.30;;;6.22;;
21198;SDS011;10757;51.038;3.712;2022-12-26T03:13:23;10.48;;;5.47;;
21198;SDS011;10757;51.038;3.712;2022-12-26T03:15:54;9.57;;;6.68;;
21198;SDS011;10757;51.038;3.712;2022-12-26T03:18:42;8.70;;;6.43;;
21198;SDS011;10757;51.038;3.712;2022-12-26T03:21:11;10.13;;;6.47;;
21198;SDS011;10757;51.038;3.712;2022-12-26T03:23:38;11.13;;;5.95;;
21198;SDS011;10757;51.038;3.712;2022-12-26T03:26:08;9.77;;;6.30;;
21198;SDS011;10757;51.038;3.712;2022-12-26T03:28:57;11.07;;;7.13;;
21198;SDS011;10757;51.038;3.712;2022-12-26T03:31:43;9.30;;;6.57;;
21198;SDS011;10757;51.038;3.712;2022-12-26T03:34:08;9.48;;;6.80;;
21198;SDS011;10757;51.038;3.712;2022-12-26T03:49:16;8.55;;;5.38;;
21198;SDS011;10757;51.038;3.712;2022-12-26T03:55:01;7.95;;;5.65;;
21198;SDS011;10757;51.038;3.712;2022-12-26T04:00:53;11.48;;;6.00;;
21198;SDS011;10757;51.038;3.712;2022-12-26T04:03:41;8.63;;;5.75;;
21198;SDS011;10757;51.038;3.712;2022-12-26T04:06:31;11.57;;;5.63;;
21198;SDS011;10757;51.038;3.712;2022-12-26T04:09:26;9.55;;;5.53;;
21198;SDS011;10757;51.038;3.712;2022-12-26T04:12:25;7.68;;;5.18;;
21198;SDS011;10757;51.038;3.712;2022-12-26T04:15:15;8.88;;;5.43;;
21198;SDS011;10757;51.038;3.712;2022-12-26T04:18:13;7.30;;;4.97;;
21198;SDS011;10757;51.038;3.712;2022-12-26T04:23:56;7.68;;;4.85;;
21198;SDS011;10757;51.038;3.712;2022-12-26T04:26:45;10.07;;;5.05;;
21198;SDS011;10757;51.038;3.712;2022-12-26T04:29:34;8.77;;;4.70;;
21198;SDS011;10757;51.038;3.712;2022-12-26T04:35:28;7.28;;;4.75;;
21198;SDS011;10757;51.038;3.712;2022-12-26T04:38:21;7.60;;;4.97;;
21198;SDS011;10757;51.038;3.712;2022-12-26T04:41:10;9.57;;;4.68;;
21198;SDS011;10757;51.038;3.712;2022-12-26T04:43:56;6.72;;;4.32;;
21198;SDS011;10757;51.038;3.712;2022-12-26T04:46:37;6.65;;;4.15;;
21198;SDS011;10757;51.038;3.712;2022-12-26T04:49:06;8.68;;;4.40;;
21198;SDS011;10757;51.038;3.712;2022-12-26T04:51:53;6.13;;;3.92;;
21198;SDS011;10757;51.038;3.712;2022-12-26T04:54:24;7.07;;;4.72;;
21198;SDS011;10757;51.038;3.712;2022-12-26T04:56:50;8.25;;;4.38;;
21198;SDS011;10757;51.038;3.712;2022-12-26T04:59:17;10.18;;;4.55;;
21198;SDS011;10757;51.038;3.712;2022-12-26T05:01:43;8.13;;;4.70;;
21198;SDS011;10757;51.038;3.712;2022-12-26T05:04:27;8.13;;;4.75;;
21198;SDS011;10757;51.038;3.712;2022-12-26T05:07:14;8.70;;;4.88;;
21198;SDS011;10757;51.038;3.712;2022-12-26T05:10:04;10.57;;;4.82;;
21198;SDS011;10757;51.038;3.712;2022-12-26T05:12:32;7.88;;;4.82;;
21198;SDS011;10757;51.038;3.712;2022-12-26T05:14:58;6.97;;;4.72;;
21198;SDS011;10757;51.038;3.712;2022-12-26T05:17:24;7.63;;;4.78;;
21198;SDS011;10757;51.038;3.712;2022-12-26T05:20:10;7.57;;;4.78;;
21198;SDS011;10757;51.038;3.712;2022-12-26T05:22:55;7.50;;;4.70;;
21198;SDS011;10757;51.038;3.712;2022-12-26T05:25:41;9.25;;;4.43;;
21198;SDS011;10757;51.038;3.712;2022-12-26T05:28:27;7.32;;;4.32;;
21198;SDS011;10757;51.038;3.712;2022-12-26T05:33:35;6.95;;;4.35;;
21198;SDS011;10757;51.038;3.712;2022-12-26T05:36:20;8.70;;;4.15;;
21198;SDS011;10757;51.038;3.712;2022-12-26T05:38:49;12.07;;;5.07;;
21198;SDS011;10757;51.038;3.712;2022-12-26T05:41:15;9.30;;;4.30;;
21198;SDS011;10757;51.038;3.712;2022-12-26T05:43:42;8.30;;;4.40;;
21198;SDS011;10757;51.038;3.712;2022-12-26T05:46:08;9.50;;;4.03;;
21198;SDS011;10757;51.038;3.712;2022-12-26T05:48:34;9.35;;;4.13;;
21198;SDS011;10757;51.038;3.712;2022-12-26T05:51:01;9.20;;;4.55;;
21198;SDS011;10757;51.038;3.712;2022-12-26T05:53:28;7.53;;;4.32;;
21198;SDS011;10757;51.038;3.712;2022-12-26T05:55:55;11.45;;;4.53;;
21198;SDS011;10757;51.038;3.712;2022-12-26T05:58:26;7.47;;;4.10;;
21198;SDS011;10757;51.038;3.712;2022-12-26T06:00:51;9.55;;;4.43;;
21198;SDS011;10757;51.038;3.712;2022-12-26T06:03:27;8.40;;;4.45;;
21198;SDS011;10757;51.038;3.712;2022-12-26T06:05:55;8.20;;;4.22;;
21198;SDS011;10757;51.038;3.712;2022-12-26T06:08:21;7.97;;;4.40;;
21198;SDS011;10757;51.038;3.712;2022-12-26T06:10:47;7.28;;;4.20;;
21198;SDS011;10757;51.038;3.712;2022-12-26T06:13:13;8.45;;;4.35;;
21198;SDS011;10757;51.038;3.712;2022-12-26T06:15:39;8.48;;;4.15;;
21198;SDS011;10757;51.038;3.712;2022-12-26T06:18:04;7.03;;;3.85;;
21198;SDS011;10757;51.038;3.712;2022-12-26T06:20:36;7.00;;;4.10;;
21198;SDS011;10757;51.038;3.712;2022-12-26T06:23:03;6.95;;;3.92;;
21198;SDS011;10757;51.038;3.712;2022-12-26T06:25:29;8.52;;;3.63;;
21198;SDS011;10757;51.038;3.712;2022-12-26T06:27:54;13.68;;;3.75;;
21198;SDS011;10757;51.038;3.712;2022-12-26T06:30:20;7.10;;;3.78;;
21198;SDS011;10757;51.038;3.712;2022-12-26T06:32:46;12.70;;;4.13;;
21198;SDS011;10757;51.038;3.712;2022-12-26T06:35:11;8.00;;;3.95;;
21198;SDS011;10757;51.038;3.712;2022-12-26T06:37:37;7.75;;;3.50;;
21198;SDS011;10757;51.038;3.712;2022-12-26T06:40:03;6.78;;;3.35;;
21198;SDS011;10757;51.038;3.712;2022-12-26T06:44:59;10.30;;;3.60;;
21198;SDS011;10757;51.038;3.712;2022-12-26T06:47:24;6.47;;;3.05;;
21198;SDS011;10757;51.038;3.712;2022-12-26T06:49:50;6.47;;;2.97;;
21198;SDS011;10757;51.038;3.712;2022-12-26T06:52:16;10.93;;;3.70;;
21198;SDS011;10757;51.038;3.712;2022-12-26T06:54:41;9.77;;;3.63;;
21198;SDS011;10757;51.038;3.712;2022-12-26T06:57:07;7.97;;;3.20;;
21198;SDS011;10757;51.038;3.712;2022-12-26T06:59:33;9.88;;;4.72;;
21198;SDS011;10757;51.038;3.712;2022-12-26T07:01:59;9.07;;;2.70;;
21198;SDS011;10757;51.038;3.712;2022-12-26T07:04:26;6.20;;;2.85;;
21198;SDS011;10757;51.038;3.712;2022-12-26T07:06:54;9.25;;;3.13;;
21198;SDS011;10757;51.038;3.712;2022-12-26T07:09:20;8.70;;;2.75;;
21198;SDS011;10757;51.038;3.712;2022-12-26T07:11:47;4.90;;;2.58;;
21198;SDS011;10757;51.038;3.712;2022-12-26T07:14:14;7.65;;;2.67;;
21198;SDS011;10757;51.038;3.712;2022-12-26T07:16:41;8.75;;;2.60;;
21198;SDS011;10757;51.038;3.712;2022-12-26T07:19:08;6.07;;;2.13;;
21198;SDS011;10757;51.038;3.712;2022-12-26T07:21:35;9.43;;;3.17;;
21198;SDS011;10757;51.038;3.712;2022-12-26T07:24:01;6.05;;;2.35;;
21198;SDS011;10757;51.038;3.712;2022-12-26T07:26:27;5.25;;;2.72;;
21198;SDS011;10757;51.038;3.712;2022-12-26T07:28:56;11.98;;;5.28;;
21198;SDS011;10757;51.038;3.712;2022-12-26T07:31:23;8.23;;;2.72;;
21198;SDS011;10757;51.038;3.712;2022-12-26T07:33:52;9.65;;;2.40;;
21198;SDS011;10757;51.038;3.712;2022-12-26T07:36:19;12.75;;;2.20;;
21198;SDS011;10757;51.038;3.712;2022-12-26T07:38:45;7.07;;;2.03;;
21198;SDS011;10757;51.038;3.712;2022-12-26T07:41:11;9.48;;;2.13;;
21198;SDS011;10757;51.038;3.712;2022-12-26T07:43:56;5.15;;;1.95;;
21198;SDS011;10757;51.038;3.712;2022-12-26T07:46:22;9.88;;;2.10;;
21198;SDS011;10757;51.038;3.712;2022-12-26T07:48:48;7.43;;;2.30;;
21198;SDS011;10757;51.038;3.712;2022-12-26T07:51:13;10.00;;;1.80;;
21198;SDS011;10757;51.038;3.712;2022-12-26T07:53:40;9.50;;;1.80;;
21198;SDS011;10757;51.038;3.712;2022-12-26T07:56:06;6.38;;;2.15;;
21198;SDS011;10757;51.038;3.712;2022-12-26T07:58:32;7.72;;;2.30;;
21198;SDS011;10757;51.038;3.712;2022-12-26T08:01:02;9.88;;;2.38;;
21198;SDS011;10757;51.038;3.712;2022-12-26T08:03:28;9.30;;;1.80;;
21198;SDS011;10757;51.038;3.712;2022-12-26T08:05:54;12.48;;;1.80;;
21198;SDS011;10757;51.038;3.712;2022-12-26T08:08:20;8.00;;;2.22;;
21198;SDS011;10757;51.038;3.712;2022-12-26T08:10:46;9.27;;;2.30;;
21198;SDS011;10757;51.038;3.712;2022-12-26T08:13:12;8.73;;;2.17;;
21198;SDS011;10757;51.038;3.712;2022-12-26T08:15:38;6.55;;;1.80;;
21198;SDS011;10757;51.038;3.712;2022-12-26T08:18:04;9.10;;;2.38;;
21198;SDS011;10757;51.038;3.712;2022-12-26T08:20:30;5.20;;;1.83;;
21198;SDS011;10757;51.038;3.712;2022-12-26T08:22:57;7.93;;;2.10;;
21198;SDS011;10757;51.038;3.712;2022-12-26T08:25:22;7.85;;;1.80;;
21198;SDS011;10757;51.038;3.712;2022-12-26T08:27:48;10.98;;;2.10;;
21198;SDS011;10757;51.038;3.712;2022-12-26T08:30:14;12.35;;;2.20;;
21198;SDS011;10757;51.038;3.712;2022-12-26T08:32:40;5.80;;;2.13;;
21198;SDS011;10757;51.038;3.712;2022-12-26T08:35:06;6.70;;;1.80;;
21198;SDS011;10757;51.038;3.712;2022-12-26T08:37:32;8.27;;;1.88;;
21198;SDS011;10757;51.038;3.712;2022-12-26T08:39:58;8.15;;;1.73;;
21198;SDS011;10757;51.038;3.712;2022-12-26T08:42:25;8.05;;;2.70;;
21198;SDS011;10757;51.038;3.712;2022-12-26T08:44:53;9.00;;;2.15;;
21198;SDS011;10757;51.038;3.712;2022-12-26T08:47:19;8.68;;;2.30;;
21198;SDS011;10757;51.038;3.712;2022-12-26T08:49:46;13.00;;;2.58;;
21198;SDS011;10757;51.038;3.712;2022-12-26T08:52:11;5.57;;;2.25;;
21198;SDS011;10757;51.038;3.712;2022-12-26T08:54:37;11.13;;;2.75;;
21198;SDS011;10757;51.038;3.712;2022-12-26T08:57:02;10.25;;;2.20;;
21198;SDS011;10757;51.038;3.712;2022-12-26T08:59:29;12.45;;;2.50;;
21198;SDS011;10757;51.038;3.712;2022-12-26T09:01:55;10.43;;;2.50;;
21198;SDS011;10757;51.038;3.712;2022-12-26T09:04:21;9.57;;;2.15;;
21198;SDS011;10757;51.038;3.712;2022-12-26T09:06:46;7.47;;;2.60;;
21198;SDS011;10757;51.038;3.712;2022-12-26T09:09:13;12.38;;;2.50;;
21198;SDS011;10757;51.038;3.712;2022-12-26T09:11:39;11.73;;;2.70;;
21198;SDS011;10757;51.038;3.712;2022-12-26T09:14:05;6.43;;;2.40;;
21198;SDS011;10757;51.038;3.712;2022-12-26T09:16:36;8.25;;;2.83;;
21198;SDS011;10757;51.038;3.712;2022-12-26T09:19:06;15.18;;;2.72;;
21198;SDS011;10757;51.038;3.712;2022-12-26T09:21:35;7.32;;;2.67;;
21198;SDS011;10757;51.038;3.712;2022-12-26T09:24:02;11.98;;;2.88;;
21198;SDS011;10757;51.038;3.712;2022-12-26T09:26:35;12.77;;;3.00;;
21198;SDS011;10757;51.038;3.712;2022-12-26T09:29:01;12.43;;;2.65;;
21198;SDS011;10757;51.038;3.712;2022-12-26T09:31:28;12.20;;;2.85;;
21198;SDS011;10757;51.038;3.712;2022-12-26T09:33:56;13.93;;;2.58;;
21198;SDS011;10757;51.038;3.712;2022-12-26T09:36:24;10.15;;;1.70;;
21198;SDS011;10757;51.038;3.712;2022-12-26T09:38:53;7.10;;;1.50;;
21198;SDS011;10757;51.038;3.712;2022-12-26T09:44:06;11.90;;;1.77;;
21198;SDS011;10757;51.038;3.712;2022-12-26T09:52:37;7.68;;;1.58;;
21198;SDS011;10757;51.038;3.712;2022-12-26T10:00:44;8.20;;;1.27;;
21198;SDS011;10757;51.038;3.712;2022-12-26T10:03:15;11.82;;;2.05;;
21198;SDS011;10757;51.038;3.712;2022-12-26T10:05:45;7.88;;;1.88;;
21198;SDS011;10757;51.038;3.712;2022-12-26T10:08:22;10.23;;;1.63;;
21198;SDS011;10757;51.038;3.712;2022-12-26T10:11:11;13.65;;;2.28;;
21198;SDS011;10757;51.038;3.712;2022-12-26T10:19:32;12.02;;;2.30;;
21198;SDS011;10757;51.038;3.712;2022-12-26T10:22:36;10.07;;;2.28;;
21198;SDS011;10757;51.038;3.712;2022-12-26T10:25:22;21.33;;;5.50;;
21198;SDS011;10757;51.038;3.712;2022-12-26T10:27:52;13.80;;;3.05;;
21198;SDS011;10757;51.038;3.712;2022-12-26T10:30:26;20.73;;;6.72;;
21198;SDS011;10757;51.038;3.712;2022-12-26T10:32:58;18.92;;;3.45;;
21198;SDS011;10757;51.038;3.712;2022-12-26T10:35:30;17.13;;;2.63;;
21198;SDS011;10757;51.038;3.712;2022-12-26T10:40:54;14.85;;;3.00;;
21198;SDS011;10757;51.038;3.712;2022-12-26T10:43:29;14.15;;;3.58;;
21198;SDS011;10757;51.038;3.712;2022-12-26T10:48:26;12.10;;;2.20;;
21198;SDS011;10757;51.038;3.712;2022-12-26T10:50:53;12.73;;;2.50;;
21198;SDS011;10757;51.038;3.712;2022-12-26T10:53:18;11.77;;;2.40;;
21198;SDS011;10757;51.038;3.712;2022-12-26T10:55:44;11.43;;;2.50;;
21198;SDS011;10757;51.038;3.712;2022-12-26T11:00:43;8.90;;;2.22;;
21198;SDS011;10757;51.038;3.712;2022-12-26T11:03:12;16.20;;;2.22;;
21198;SDS011;10757;51.038;3.712;2022-12-26T11:05:44;9.60;;;1.80;;
21198;SDS011;10757;51.038;3.712;2022-12-26T11:08:17;7.88;;;1.60;;
21198;SDS011;10757;51.038;3.712;2022-12-26T11:11:07;13.00;;;2.05;;
21198;SDS011;10757;51.038;3.712;2022-12-26T11:13:51;13.27;;;1.65;;
21198;SDS011;10757;51.038;3.712;2022-12-26T11:16:24;9.75;;;1.52;;
21198;SDS011;10757;51.038;3.712;2022-12-26T11:18:50;13.63;;;1.70;;
21198;SDS011;10757;51.038;3.712;2022-12-26T11:23:42;11.98;;;1.30;;
21198;SDS011;10757;51.038;3.712;2022-12-26T11:26:20;10.57;;;2.22;;
21198;SDS011;10757;51.038;3.712;2022-12-26T11:28:47;6.93;;;1.52;;
21198;SDS011;10757;51.038;3.712;2022-12-26T11:31:30;10.20;;;2.03;;
21198;SDS011;10757;51.038;3.712;2022-12-26T11:33:57;10.07;;;1.55;;
21198;SDS011;10757;51.038;3.712;2022-12-26T11:36:26;14.32;;;1.85;;
21198;SDS011;10757;51.038;3.712;2022-12-26T11:39:02;9.32;;;1.45;;
21198;SDS011;10757;51.038;3.712;2022-12-26T11:41:37;12.30;;;1.40;;
21198;SDS011;10757;51.038;3.712;2022-12-26T11:44:15;13.15;;;2.53;;
21198;SDS011;10757;51.038;3.712;2022-12-26T12:00:38;10.95;;;1.40;;
21198;SDS011;10757;51.038;3.712;2022-12-26T12:03:14;12.43;;;2.00;;
21198;SDS011;10757;51.038;3.712;2022-12-26T12:08:22;15.98;;;2.60;;
21198;SDS011;10757;51.038;3.712;2022-12-26T12:16:32;15.82;;;2.40;;
21198;SDS011;10757;51.038;3.712;2022-12-26T12:35:38;12.40;;;1.77;;
21198;SDS011;10757;51.038;3.712;2022-12-26T12:38:51;9.50;;;1.20;;
21198;SDS011;10757;51.038;3.712;2022-12-26T12:44:04;9.63;;;1.90;;
21198;SDS011;10757;51.038;3.712;2022-12-26T12:52:20;16.00;;;2.17;;
21198;SDS011;10757;51.038;3.712;2022-12-26T12:55:10;9.75;;;1.92;;
21198;SDS011;10757;51.038;3.712;2022-12-26T13:00:26;13.10;;;1.95;;
21198;SDS011;10757;51.038;3.712;2022-12-26T13:02:59;9.27;;;1.50;;
21198;SDS011;10757;51.038;3.712;2022-12-26T13:16:32;10.23;;;2.00;;
21198;SDS011;10757;51.038;3.712;2022-12-26T13:19:41;8.95;;;1.77;;
21198;SDS011;10757;51.038;3.712;2022-12-26T13:22:12;6.38;;;1.42;;
21198;SDS011;10757;51.038;3.712;2022-12-26T13:24:44;8.50;;;1.90;;
21198;SDS011;10757;51.038;3.712;2022-12-26T13:27:24;12.32;;;1.95;;
21198;SDS011;10757;51.038;3.712;2022-12-26T13:29:59;8.48;;;1.83;;
21198;SDS011;10757;51.038;3.712;2022-12-26T13:32:26;8.25;;;1.65;;
21198;SDS011;10757;51.038;3.712;2022-12-26T13:34:55;11.07;;;1.80;;
21198;SDS011;10757;51.038;3.712;2022-12-26T13:38:10;10.85;;;1.65;;
21198;SDS011;10757;51.038;3.712;2022-12-26T13:40:19;8.50;;;2.15;;
21198;SDS011;10757;51.038;3.712;2022-12-26T13:42:56;8.20;;;1.38;;
21198;SDS011;10757;51.038;3.712;2022-12-26T13:45:46;9.88;;;1.83;;
21198;SDS011;10757;51.038;3.712;2022-12-26T13:55:52;10.25;;;2.22;;
21198;SDS011;10757;51.038;3.712;2022-12-26T13:58:25;6.07;;;1.50;;
21198;SDS011;10757;51.038;3.712;2022-12-26T14:03:53;8.40;;;1.73;;
21198;SDS011;10757;51.038;3.712;2022-12-26T14:15:16;11.55;;;2.05;;
21198;SDS011;10757;51.038;3.712;2022-12-26T14:23:25;7.97;;;1.92;;
21198;SDS011;10757;51.038;3.712;2022-12-26T14:28:49;9.70;;;1.90;;
21198;SDS011;10757;51.038;3.712;2022-12-26T14:31:25;6.97;;;1.77;;
21198;SDS011;10757;51.038;3.712;2022-12-26T14:44:52;9.60;;;1.73;;
21198;SDS011;10757;51.038;3.712;2022-12-26T14:47:37;9.35;;;1.70;;
21198;SDS011;10757;51.038;3.712;2022-12-26T14:50:47;12.38;;;1.90;;
21198;SDS011;10757;51.038;3.712;2022-12-26T15:09:15;12.75;;;2.28;;
21198;SDS011;10757;51.038;3.712;2022-12-26T15:12:01;13.38;;;2.70;;
21198;SDS011;10757;51.038;3.712;2022-12-26T15:31:44;8.13;;;2.30;;
21198;SDS011;10757;51.038;3.712;2022-12-26T15:37:29;13.00;;;2.13;;
21198;SDS011;10757;51.038;3.712;2022-12-26T15:42:51;15.55;;;2.40;;
21198;SDS011;10757;51.038;3.712;2022-12-26T15:53:43;14.60;;;2.90;;
21198;SDS011;10757;51.038;3.712;2022-12-26T15:56:45;14.40;;;3.13;;
21198;SDS011;10757;51.038;3.712;2022-12-26T16:13:23;10.93;;;2.92;;
21198;SDS011;10757;51.038;3.712;2022-12-26T16:15:57;15.60;;;2.92;;
21198;SDS011;10757;51.038;3.712;2022-12-26T16:18:30;13.60;;;2.38;;
21198;SDS011;10757;51.038;3.712;2022-12-26T16:21:06;22.38;;;3.47;;
21198;SDS011;10757;51.038;3.712;2022-12-26T16:23:51;15.00;;;2.72;;
21198;SDS011;10757;51.038;3.712;2022-12-26T16:26:25;13.60;;;2.80;;
21198;SDS011;10757;51.038;3.712;2022-12-26T16:28:53;12.30;;;2.58;;
21198;SDS011;10757;51.038;3.712;2022-12-26T16:31:26;14.35;;;3.78;;
21198;SDS011;10757;51.038;3.712;2022-12-26T16:33:56;13.68;;;3.92;;
21198;SDS011;10757;51.038;3.712;2022-12-26T16:36:28;13.57;;;2.72;;
21198;SDS011;10757;51.038;3.712;2022-12-26T16:38:56;12.88;;;3.17;;
21198;SDS011;10757;51.038;3.712;2022-12-26T16:41:29;14.55;;;3.67;;
21198;SDS011;10757;51.038;3.712;2022-12-26T16:44:27;14.38;;;3.10;;
21198;SDS011;10757;51.038;3.712;2022-12-26T16:46:52;13.02;;;3.55;;
21198;SDS011;10757;51.038;3.712;2022-12-26T16:49:18;20.92;;;3.65;;
21198;SDS011;10757;51.038;3.712;2022-12-26T16:51:49;13.00;;;4.70;;
21198;SDS011;10757;51.038;3.712;2022-12-26T16:56:47;18.80;;;4.45;;
21198;SDS011;10757;51.038;3.712;2022-12-26T16:59:18;21.13;;;4.72;;
21198;SDS011;10757;51.038;3.712;2022-12-26T17:01:54;10.40;;;3.42;;
21198;SDS011;10757;51.038;3.712;2022-12-26T17:04:23;12.23;;;3.70;;
21198;SDS011;10757;51.038;3.712;2022-12-26T17:07:04;17.77;;;4.07;;
21198;SDS011;10757;51.038;3.712;2022-12-26T17:09:40;14.32;;;4.13;;
21198;SDS011;10757;51.038;3.712;2022-12-26T17:12:16;17.58;;;4.18;;
21198;SDS011;10757;51.038;3.712;2022-12-26T17:14:56;13.27;;;4.32;;
21198;SDS011;10757;51.038;3.712;2022-12-26T17:17:35;11.75;;;4.28;;
21198;SDS011;10757;51.038;3.712;2022-12-26T17:22:59;18.58;;;4.75;;
21198;SDS011;10757;51.038;3.712;2022-12-26T17:28:56;18.90;;;5.70;;
21198;SDS011;10757;51.038;3.712;2022-12-26T17:31:42;19.00;;;5.63;;
21198;SDS011;10757;51.038;3.712;2022-12-26T17:34:42;16.73;;;5.18;;
21198;SDS011;10757;51.038;3.712;2022-12-26T17:37:02;17.88;;;5.40;;
21198;SDS011;10757;51.038;3.712;2022-12-26T17:39:29;17.33;;;4.07;;
21198;SDS011;10757;51.038;3.712;2022-12-26T17:41:58;13.20;;;4.57;;
21198;SDS011;10757;51.038;3.712;2022-12-26T17:44:35;12.25;;;4.03;;
21198;SDS011;10757;51.038;3.712;2022-12-26T17:47:22;13.15;;;5.18;;
21198;SDS011;10757;51.038;3.712;2022-12-26T17:49:50;13.90;;;4.05;;
21198;SDS011;10757;51.038;3.712;2022-12-26T17:52:18;13.52;;;4.30;;
21198;SDS011;10757;51.038;3.712;2022-12-26T17:54:49;16.00;;;4.43;;
21198;SDS011;10757;51.038;3.712;2022-12-26T17:57:23;20.38;;;4.95;;
21198;SDS011;10757;51.038;3.712;2022-12-26T17:59:54;20.17;;;4.47;;
21198;SDS011;10757;51.038;3.712;2022-12-26T18:02:21;17.77;;;4.47;;
21198;SDS011;10757;51.038;3.712;2022-12-26T18:04:47;13.70;;;3.92;;
21198;SDS011;10757;51.038;3.712;2022-12-26T18:07:18;13.48;;;4.45;;
21198;SDS011;10757;51.038;3.712;2022-12-26T18:09:48;17.17;;;4.05;;
21198;SDS011;10757;51.038;3.712;2022-12-26T18:12:18;13.63;;;4.35;;
21198;SDS011;10757;51.038;3.712;2022-12-26T18:14:43;17.73;;;4.93;;
21198;SDS011;10757;51.038;3.712;2022-12-26T18:17:13;22.60;;;5.05;;
21198;SDS011;10757;51.038;3.712;2022-12-26T18:19:42;10.65;;;4.55;;
21198;SDS011;10757;51.038;3.712;2022-12-26T18:22:10;14.32;;;4.60;;
21198;SDS011;10757;51.038;3.712;2022-12-26T18:24:41;11.75;;;4.45;;
21198;SDS011;10757;51.038;3.712;2022-12-26T18:27:23;19.02;;;5.00;;
21198;SDS011;10757;51.038;3.712;2022-12-26T18:29:55;25.40;;;5.72;;
21198;SDS011;10757;51.038;3.712;2022-12-26T18:32:30;16.88;;;4.80;;
21198;SDS011;10757;51.038;3.712;2022-12-26T18:34:57;12.32;;;4.68;;
21198;SDS011;10757;51.038;3.712;2022-12-26T18:37:27;18.67;;;6.93;;
21198;SDS011;10757;51.038;3.712;2022-12-26T18:39:54;19.10;;;5.60;;
21198;SDS011;10757;51.038;3.712;2022-12-26T18:42:20;22.27;;;5.65;;
21198;SDS011;10757;51.038;3.712;2022-12-26T18:44:46;11.70;;;4.60;;
21198;SDS011;10757;51.038;3.712;2022-12-26T18:47:13;17.60;;;5.22;;
21198;SDS011;10757;51.038;3.712;2022-12-26T18:49:44;12.90;;;4.25;;
21198;SDS011;10757;51.038;3.712;2022-12-26T18:52:11;11.80;;;4.95;;
21198;SDS011;10757;51.038;3.712;2022-12-26T18:54:37;17.15;;;5.20;;
21198;SDS011;10757;51.038;3.712;2022-12-26T18:57:04;16.92;;;5.05;;
21198;SDS011;10757;51.038;3.712;2022-12-26T18:59:31;15.30;;;4.72;;
21198;SDS011;10757;51.038;3.712;2022-12-26T19:02:00;15.15;;;5.18;;
21198;SDS011;10757;51.038;3.712;2022-12-26T19:04:32;13.00;;;4.53;;
21198;SDS011;10757;51.038;3.712;2022-12-26T19:06:58;15.55;;;4.60;;
21198;SDS011;10757;51.038;3.712;2022-12-26T19:09:30;18.42;;;4.95;;
21198;SDS011;10757;51.038;3.712;2022-12-26T19:11:58;23.33;;;6.03;;
21198;SDS011;10757;51.038;3.712;2022-12-26T19:14:24;16.02;;;5.05;;